sensor_id;sensor_type;location;lat;lon;timestamp;P1;durP1;ratioP1;P2;durP2;ratioP2
2896;SDS011;1458;49.728;9.228;2023-03-14T00:00:04;0.20;;;0.20;;
2896;SDS011;1458;49.728;9.228;2023-03-14T00:02:37;0.20;;;0.20;;
2896;SDS011;1458;49.728;9.228;2023-03-14T00:05:05;0.10;;;0.10;;
2896;SDS011;1458;49.728;9.228;2023-03-14T00:07:34;0.20;;;0.20;;
2896;SDS011;1458;49.728;9.228;2023-03-14T00:10:03;0.20;;;0.20;;
2896;SDS011;1458;49.728;9.228;2023-03-14T00:12:32;0.20;;;0.20;;
2896;SDS011;1458;49.728;9.228;2023-03-14T00:15:00;0.20;;;0.20;;
2896;SDS011;1458;49.728;9.228;2023-03-14T00:17:28;0.20;;;0.20;;
2896;SDS011;1458;49.728;9.228;2023-03-14T00:19:58;0.20;;;0.20;;
2896;SDS011;1458;49.728;9.228;2023-03-14T00:22:29;0.20;;;0.20;;
2896;SDS011;1458;49.728;9.228;2023-03-14T00:24:57;0.20;;;0.20;;
2896;SDS011;1458;49.728;9.228;2023-03-14T00:27:24;0.27;;;0.27;;
2896;SDS011;1458;49.728;9.228;2023-03-14T00:29:52;0.20;;;0.20;;
2896;SDS011;1458;49.728;9.228;2023-03-14T00:32:19;0.20;;;0.20;;
2896;SDS011;1458;49.728;9.228;2023-03-14T00:34:46;0.20;;;0.20;;
2896;SDS011;1458;49.728;9.228;2023-03-14T00:37:15;0.20;;;0.20;;
2896;SDS011;1458;49.728;9.228;2023-03-14T00:39:43;0.20;;;0.20;;
2896;SDS011;1458;49.728;9.228;2023-03-14T00:42:10;0.20;;;0.20;;
2896;SDS011;1458;49.728;9.228;2023-03-14T00:44:38;0.20;;;0.20;;
2896;SDS011;1458;49.728;9.228;2023-03-14T00:47:06;0.30;;;0.30;;
2896;SDS011;1458;49.728;9.228;2023-03-14T00:49:34;0.20;;;0.20;;
2896;SDS011;1458;49.728;9.228;2023-03-14T00:52:01;0.20;;;0.20;;
2896;SDS011;1458;49.728;9.228;2023-03-14T00:54:30;0.20;;;0.20;;
2896;SDS011;1458;49.728;9.228;2023-03-14T00:56:57;0.20;;;0.20;;
2896;SDS011;1458;49.728;9.228;2023-03-14T00:59:25;0.20;;;0.20;;
2896;SDS011;1458;49.728;9.228;2023-03-14T01:01:53;0.20;;;0.20;;
2896;SDS011;1458;49.728;9.228;2023-03-14T01:04:21;0.30;;;0.30;;
2896;SDS011;1458;49.728;9.228;2023-03-14T01:06:48;0.20;;;0.20;;
2896;SDS011;1458;49.728;9.228;2023-03-14T01:09:16;0.20;;;0.20;;
2896;SDS011;1458;49.728;9.228;2023-03-14T01:11:45;0.27;;;0.27;;
2896;SDS011;1458;49.728;9.228;2023-03-14T01:14:14;0.27;;;0.27;;
2896;SDS011;1458;49.728;9.228;2023-03-14T01:16:41;0.20;;;0.20;;
2896;SDS011;1458;49.728;9.228;2023-03-14T01:19:09;0.20;;;0.20;;
2896;SDS011;1458;49.728;9.228;2023-03-14T01:21:36;0.30;;;0.30;;
2896;SDS011;1458;49.728;9.228;2023-03-14T01:24:04;0.23;;;0.23;;
2896;SDS011;1458;49.728;9.228;2023-03-14T01:26:33;0.20;;;0.20;;
2896;SDS011;1458;49.728;9.228;2023-03-14T01:29:04;0.30;;;0.30;;
2896;SDS011;1458;49.728;9.228;2023-03-14T01:31:34;0.20;;;0.20;;
2896;SDS011;1458;49.728;9.228;2023-03-14T01:34:02;0.20;;;0.20;;
2896;SDS011;1458;49.728;9.228;2023-03-14T01:36:30;0.20;;;0.20;;
2896;SDS011;1458;49.728;9.228;2023-03-14T01:38:59;0.20;;;0.20;;
2896;SDS011;1458;49.728;9.228;2023-03-14T01:41:27;0.30;;;0.30;;
2896;SDS011;1458;49.728;9.228;2023-03-14T01:43:57;0.20;;;0.20;;
2896;SDS011;1458;49.728;9.228;2023-03-14T01:46:41;0.20;;;0.20;;
2896;SDS011;1458;49.728;9.228;2023-03-14T01:49:16;0.20;;;0.20;;
2896;SDS011;1458;49.728;9.228;2023-03-14T01:51:57;0.20;;;0.20;;
2896;SDS011;1458;49.728;9.228;2023-03-14T01:54:28;0.20;;;0.20;;
2896;SDS011;1458;49.728;9.228;2023-03-14T01:57:03;0.30;;;0.30;;
2896;SDS011;1458;49.728;9.228;2023-03-14T01:59:35;0.20;;;0.20;;
2896;SDS011;1458;49.728;9.228;2023-03-14T02:02:06;0.20;;;0.20;;
2896;SDS011;1458;49.728;9.228;2023-03-14T02:04:37;0.23;;;0.23;;
2896;SDS011;1458;49.728;9.228;2023-03-14T02:07:08;0.30;;;0.30;;
2896;SDS011;1458;49.728;9.228;2023-03-14T02:09:50;0.20;;;0.20;;
2896;SDS011;1458;49.728;9.228;2023-03-14T02:12:23;0.20;;;0.20;;
2896;SDS011;1458;49.728;9.228;2023-03-14T02:15:07;0.20;;;0.20;;
2896;SDS011;1458;49.728;9.228;2023-03-14T02:17:52;0.20;;;0.20;;
2896;SDS011;1458;49.728;9.228;2023-03-14T02:20:28;0.20;;;0.20;;
2896;SDS011;1458;49.728;9.228;2023-03-14T02:23:01;0.20;;;0.20;;
2896;SDS011;1458;49.728;9.228;2023-03-14T02:25:32;0.20;;;0.20;;
2896;SDS011;1458;49.728;9.228;2023-03-14T02:28:08;0.30;;;0.30;;
2896;SDS011;1458;49.728;9.228;2023-03-14T02:30:37;0.20;;;0.20;;
2896;SDS011;1458;49.728;9.228;2023-03-14T02:33:05;0.30;;;0.30;;
2896;SDS011;1458;49.728;9.228;2023-03-14T02:35:36;0.20;;;0.20;;
2896;SDS011;1458;49.728;9.228;2023-03-14T02:38:10;0.20;;;0.20;;
2896;SDS011;1458;49.728;9.228;2023-03-14T02:40:45;0.30;;;0.30;;
2896;SDS011;1458;49.728;9.228;2023-03-14T02:43:14;0.30;;;0.30;;
2896;SDS011;1458;49.728;9.228;2023-03-14T02:45:47;0.20;;;0.20;;
2896;SDS011;1458;49.728;9.228;2023-03-14T02:48:20;0.30;;;0.30;;
2896;SDS011;1458;49.728;9.228;2023-03-14T02:50:51;0.20;;;0.20;;
2896;SDS011;1458;49.728;9.228;2023-03-14T02:53:24;0.20;;;0.20;;
2896;SDS011;1458;49.728;9.228;2023-03-14T02:55:56;0.20;;;0.20;;
2896;SDS011;1458;49.728;9.228;2023-03-14T02:58:28;0.30;;;0.30;;
2896;SDS011;1458;49.728;9.228;2023-03-14T03:01:11;0.30;;;0.30;;
2896;SDS011;1458;49.728;9.228;2023-03-14T03:03:39;0.30;;;0.30;;
2896;SDS011;1458;49.728;9.228;2023-03-14T03:06:06;0.20;;;0.20;;
2896;SDS011;1458;49.728;9.228;2023-03-14T03:08:34;0.20;;;0.20;;
2896;SDS011;1458;49.728;9.228;2023-03-14T03:11:01;0.30;;;0.30;;
2896;SDS011;1458;49.728;9.228;2023-03-14T03:13:33;0.30;;;0.30;;
2896;SDS011;1458;49.728;9.228;2023-03-14T03:16:02;0.27;;;0.27;;
2896;SDS011;1458;49.728;9.228;2023-03-14T03:18:33;0.30;;;0.30;;
2896;SDS011;1458;49.728;9.228;2023-03-14T03:21:00;0.20;;;0.20;;
2896;SDS011;1458;49.728;9.228;2023-03-14T03:23:28;0.30;;;0.30;;
2896;SDS011;1458;49.728;9.228;2023-03-14T03:25:56;0.20;;;0.20;;
2896;SDS011;1458;49.728;9.228;2023-03-14T03:28:24;0.30;;;0.30;;
2896;SDS011;1458;49.728;9.228;2023-03-14T03:30:54;0.33;;;0.33;;
2896;SDS011;1458;49.728;9.228;2023-03-14T03:33:21;0.30;;;0.30;;
2896;SDS011;1458;49.728;9.228;2023-03-14T03:35:50;0.30;;;0.30;;
2896;SDS011;1458;49.728;9.228;2023-03-14T03:38:24;0.27;;;0.27;;
2896;SDS011;1458;49.728;9.228;2023-03-14T03:40:53;0.20;;;0.20;;
2896;SDS011;1458;49.728;9.228;2023-03-14T03:43:24;0.40;;;0.40;;
2896;SDS011;1458;49.728;9.228;2023-03-14T03:45:51;0.30;;;0.30;;
2896;SDS011;1458;49.728;9.228;2023-03-14T03:48:22;0.30;;;0.30;;
2896;SDS011;1458;49.728;9.228;2023-03-14T03:50:50;0.20;;;0.20;;
2896;SDS011;1458;49.728;9.228;2023-03-14T03:53:20;0.30;;;0.30;;
2896;SDS011;1458;49.728;9.228;2023-03-14T03:55:48;0.40;;;0.40;;
2896;SDS011;1458;49.728;9.228;2023-03-14T03:58:15;0.30;;;0.30;;
2896;SDS011;1458;49.728;9.228;2023-03-14T04:00:43;0.30;;;0.30;;
2896;SDS011;1458;49.728;9.228;2023-03-14T04:03:12;0.30;;;0.30;;
2896;SDS011;1458;49.728;9.228;2023-03-14T04:05:39;0.30;;;0.30;;
2896;SDS011;1458;49.728;9.228;2023-03-14T04:08:09;0.30;;;0.30;;
2896;SDS011;1458;49.728;9.228;2023-03-14T04:10:36;0.30;;;0.30;;
2896;SDS011;1458;49.728;9.228;2023-03-14T04:13:20;0.30;;;0.30;;
2896;SDS011;1458;49.728;9.228;2023-03-14T04:15:51;0.33;;;0.33;;
2896;SDS011;1458;49.728;9.228;2023-03-14T04:18:26;0.30;;;0.30;;
2896;SDS011;1458;49.728;9.228;2023-03-14T04:20:55;0.30;;;0.30;;
2896;SDS011;1458;49.728;9.228;2023-03-14T04:23:35;0.30;;;0.30;;
2896;SDS011;1458;49.728;9.228;2023-03-14T04:26:04;0.30;;;0.30;;
2896;SDS011;1458;49.728;9.228;2023-03-14T04:28:31;0.30;;;0.30;;
2896;SDS011;1458;49.728;9.228;2023-03-14T04:31:06;0.30;;;0.30;;
2896;SDS011;1458;49.728;9.228;2023-03-14T04:33:36;0.30;;;0.30;;
2896;SDS011;1458;49.728;9.228;2023-03-14T04:36:04;0.30;;;0.30;;
2896;SDS011;1458;49.728;9.228;2023-03-14T04:38:34;0.30;;;0.30;;
2896;SDS011;1458;49.728;9.228;2023-03-14T04:41:02;0.30;;;0.30;;
2896;SDS011;1458;49.728;9.228;2023-03-14T04:43:32;0.30;;;0.30;;
2896;SDS011;1458;49.728;9.228;2023-03-14T04:46:06;0.30;;;0.30;;
2896;SDS011;1458;49.728;9.228;2023-03-14T04:48:35;0.40;;;0.40;;
2896;SDS011;1458;49.728;9.228;2023-03-14T04:51:04;0.40;;;0.40;;
2896;SDS011;1458;49.728;9.228;2023-03-14T04:53:33;0.30;;;0.30;;
2896;SDS011;1458;49.728;9.228;2023-03-14T04:56:05;0.40;;;0.40;;
2896;SDS011;1458;49.728;9.228;2023-03-14T04:58:37;0.40;;;0.40;;
2896;SDS011;1458;49.728;9.228;2023-03-14T05:01:05;0.30;;;0.30;;
2896;SDS011;1458;49.728;9.228;2023-03-14T05:03:42;0.30;;;0.30;;
2896;SDS011;1458;49.728;9.228;2023-03-14T05:06:17;0.40;;;0.40;;
2896;SDS011;1458;49.728;9.228;2023-03-14T05:08:51;0.30;;;0.30;;
2896;SDS011;1458;49.728;9.228;2023-03-14T05:11:24;0.30;;;0.30;;
2896;SDS011;1458;49.728;9.228;2023-03-14T05:14:12;0.30;;;0.30;;
2896;SDS011;1458;49.728;9.228;2023-03-14T05:16:59;0.30;;;0.30;;
2896;SDS011;1458;49.728;9.228;2023-03-14T05:19:50;0.40;;;0.40;;
2896;SDS011;1458;49.728;9.228;2023-03-14T05:22:48;0.30;;;0.30;;
2896;SDS011;1458;49.728;9.228;2023-03-14T05:25:36;0.30;;;0.30;;
2896;SDS011;1458;49.728;9.228;2023-03-14T05:28:19;0.40;;;0.40;;
2896;SDS011;1458;49.728;9.228;2023-03-14T05:31:06;0.30;;;0.30;;
2896;SDS011;1458;49.728;9.228;2023-03-14T05:33:52;0.30;;;0.30;;
2896;SDS011;1458;49.728;9.228;2023-03-14T05:36:40;0.33;;;0.33;;
2896;SDS011;1458;49.728;9.228;2023-03-14T05:39:46;0.33;;;0.33;;
2896;SDS011;1458;49.728;9.228;2023-03-14T05:42:38;0.30;;;0.30;;
2896;SDS011;1458;49.728;9.228;2023-03-14T05:45:35;0.30;;;0.30;;
2896;SDS011;1458;49.728;9.228;2023-03-14T05:48:16;0.30;;;0.30;;
2896;SDS011;1458;49.728;9.228;2023-03-14T05:50:54;0.40;;;0.40;;
2896;SDS011;1458;49.728;9.228;2023-03-14T05:53:36;0.40;;;0.40;;
2896;SDS011;1458;49.728;9.228;2023-03-14T05:56:23;0.30;;;0.30;;
2896;SDS011;1458;49.728;9.228;2023-03-14T05:59:02;0.40;;;0.40;;
2896;SDS011;1458;49.728;9.228;2023-03-14T06:01:58;0.40;;;0.40;;
2896;SDS011;1458;49.728;9.228;2023-03-14T06:04:32;0.40;;;0.40;;
2896;SDS011;1458;49.728;9.228;2023-03-14T06:07:00;0.43;;;0.43;;
2896;SDS011;1458;49.728;9.228;2023-03-14T06:09:29;0.30;;;0.30;;
2896;SDS011;1458;49.728;9.228;2023-03-14T06:11:59;0.43;;;0.43;;
2896;SDS011;1458;49.728;9.228;2023-03-14T06:14:31;0.47;;;0.47;;
2896;SDS011;1458;49.728;9.228;2023-03-14T06:16:58;0.30;;;0.30;;
2896;SDS011;1458;49.728;9.228;2023-03-14T06:19:29;0.40;;;0.40;;
2896;SDS011;1458;49.728;9.228;2023-03-14T06:21:57;0.40;;;0.40;;
2896;SDS011;1458;49.728;9.228;2023-03-14T06:24:25;0.40;;;0.40;;
2896;SDS011;1458;49.728;9.228;2023-03-14T06:26:54;0.40;;;0.40;;
2896;SDS011;1458;49.728;9.228;2023-03-14T06:29:21;0.40;;;0.40;;
2896;SDS011;1458;49.728;9.228;2023-03-14T06:31:49;0.40;;;0.40;;
2896;SDS011;1458;49.728;9.228;2023-03-14T06:34:17;0.40;;;0.40;;
2896;SDS011;1458;49.728;9.228;2023-03-14T06:36:45;0.30;;;0.30;;
2896;SDS011;1458;49.728;9.228;2023-03-14T06:39:13;0.40;;;0.40;;
2896;SDS011;1458;49.728;9.228;2023-03-14T06:41:44;0.40;;;0.40;;
2896;SDS011;1458;49.728;9.228;2023-03-14T06:44:13;0.40;;;0.40;;
2896;SDS011;1458;49.728;9.228;2023-03-14T06:46:40;0.40;;;0.40;;
2896;SDS011;1458;49.728;9.228;2023-03-14T06:49:08;0.50;;;0.50;;
2896;SDS011;1458;49.728;9.228;2023-03-14T06:51:35;0.40;;;0.40;;
2896;SDS011;1458;49.728;9.228;2023-03-14T06:54:05;0.50;;;0.50;;
2896;SDS011;1458;49.728;9.228;2023-03-14T06:56:32;0.40;;;0.40;;
2896;SDS011;1458;49.728;9.228;2023-03-14T06:59:00;0.47;;;0.47;;
2896;SDS011;1458;49.728;9.228;2023-03-14T07:01:31;0.40;;;0.40;;
2896;SDS011;1458;49.728;9.228;2023-03-14T07:04:09;0.47;;;0.47;;
2896;SDS011;1458;49.728;9.228;2023-03-14T07:06:41;0.50;;;0.50;;
2896;SDS011;1458;49.728;9.228;2023-03-14T07:09:10;0.50;;;0.50;;
2896;SDS011;1458;49.728;9.228;2023-03-14T07:11:41;0.60;;;0.60;;
2896;SDS011;1458;49.728;9.228;2023-03-14T07:14:09;0.60;;;0.60;;
2896;SDS011;1458;49.728;9.228;2023-03-14T07:16:39;0.70;;;0.70;;
2896;SDS011;1458;49.728;9.228;2023-03-14T07:19:07;0.70;;;0.70;;
2896;SDS011;1458;49.728;9.228;2023-03-14T07:21:35;0.60;;;0.60;;
2896;SDS011;1458;49.728;9.228;2023-03-14T07:24:06;0.63;;;0.63;;
2896;SDS011;1458;49.728;9.228;2023-03-14T07:26:34;0.60;;;0.60;;
2896;SDS011;1458;49.728;9.228;2023-03-14T07:29:02;0.50;;;0.50;;
2896;SDS011;1458;49.728;9.228;2023-03-14T07:31:30;0.53;;;0.53;;
2896;SDS011;1458;49.728;9.228;2023-03-14T07:34:00;0.50;;;0.50;;
2896;SDS011;1458;49.728;9.228;2023-03-14T07:36:31;0.50;;;0.50;;
2896;SDS011;1458;49.728;9.228;2023-03-14T07:38:58;0.50;;;0.50;;
2896;SDS011;1458;49.728;9.228;2023-03-14T07:41:26;0.40;;;0.40;;
2896;SDS011;1458;49.728;9.228;2023-03-14T07:44:12;0.53;;;0.53;;
2896;SDS011;1458;49.728;9.228;2023-03-14T07:46:40;0.40;;;0.40;;
2896;SDS011;1458;49.728;9.228;2023-03-14T07:49:09;0.50;;;0.50;;
2896;SDS011;1458;49.728;9.228;2023-03-14T07:51:36;0.60;;;0.60;;
2896;SDS011;1458;49.728;9.228;2023-03-14T07:54:03;0.50;;;0.50;;
2896;SDS011;1458;49.728;9.228;2023-03-14T07:56:31;0.40;;;0.40;;
2896;SDS011;1458;49.728;9.228;2023-03-14T07:58:58;0.40;;;0.40;;
2896;SDS011;1458;49.728;9.228;2023-03-14T08:01:26;0.40;;;0.40;;
2896;SDS011;1458;49.728;9.228;2023-03-14T08:03:54;0.40;;;0.40;;
2896;SDS011;1458;49.728;9.228;2023-03-14T08:06:22;0.30;;;0.30;;
2896;SDS011;1458;49.728;9.228;2023-03-14T08:08:50;0.40;;;0.40;;
2896;SDS011;1458;49.728;9.228;2023-03-14T08:11:17;0.40;;;0.40;;
2896;SDS011;1458;49.728;9.228;2023-03-14T08:13:45;0.40;;;0.40;;
2896;SDS011;1458;49.728;9.228;2023-03-14T08:16:15;0.40;;;0.40;;
2896;SDS011;1458;49.728;9.228;2023-03-14T08:18:43;0.50;;;0.50;;
2896;SDS011;1458;49.728;9.228;2023-03-14T08:21:10;0.40;;;0.40;;
2896;SDS011;1458;49.728;9.228;2023-03-14T08:23:40;0.40;;;0.40;;
2896;SDS011;1458;49.728;9.228;2023-03-14T08:26:07;0.40;;;0.40;;
2896;SDS011;1458;49.728;9.228;2023-03-14T08:28:34;0.40;;;0.40;;
2896;SDS011;1458;49.728;9.228;2023-03-14T08:31:03;0.40;;;0.40;;
2896;SDS011;1458;49.728;9.228;2023-03-14T08:33:31;0.40;;;0.40;;
2896;SDS011;1458;49.728;9.228;2023-03-14T08:35:59;0.30;;;0.30;;
2896;SDS011;1458;49.728;9.228;2023-03-14T08:38:27;0.30;;;0.30;;
2896;SDS011;1458;49.728;9.228;2023-03-14T08:40:57;0.30;;;0.30;;
2896;SDS011;1458;49.728;9.228;2023-03-14T08:43:25;0.30;;;0.30;;
2896;SDS011;1458;49.728;9.228;2023-03-14T08:45:53;0.40;;;0.40;;
2896;SDS011;1458;49.728;9.228;2023-03-14T08:48:23;0.50;;;0.50;;
2896;SDS011;1458;49.728;9.228;2023-03-14T08:50:51;0.40;;;0.40;;
2896;SDS011;1458;49.728;9.228;2023-03-14T08:53:18;0.40;;;0.40;;
2896;SDS011;1458;49.728;9.228;2023-03-14T08:55:47;0.40;;;0.40;;
2896;SDS011;1458;49.728;9.228;2023-03-14T08:58:20;0.40;;;0.40;;
2896;SDS011;1458;49.728;9.228;2023-03-14T09:00:48;0.30;;;0.30;;
2896;SDS011;1458;49.728;9.228;2023-03-14T09:03:16;0.40;;;0.40;;
2896;SDS011;1458;49.728;9.228;2023-03-14T09:05:43;0.47;;;0.47;;
2896;SDS011;1458;49.728;9.228;2023-03-14T09:08:11;0.40;;;0.40;;
2896;SDS011;1458;49.728;9.228;2023-03-14T09:10:38;0.40;;;0.40;;
2896;SDS011;1458;49.728;9.228;2023-03-14T09:13:06;0.30;;;0.30;;
2896;SDS011;1458;49.728;9.228;2023-03-14T09:15:34;0.30;;;0.30;;
2896;SDS011;1458;49.728;9.228;2023-03-14T09:18:02;0.30;;;0.30;;
2896;SDS011;1458;49.728;9.228;2023-03-14T09:20:30;0.33;;;0.33;;
2896;SDS011;1458;49.728;9.228;2023-03-14T09:22:57;0.30;;;0.30;;
2896;SDS011;1458;49.728;9.228;2023-03-14T09:25:24;0.30;;;0.30;;
2896;SDS011;1458;49.728;9.228;2023-03-14T09:27:52;0.30;;;0.30;;
2896;SDS011;1458;49.728;9.228;2023-03-14T09:30:19;0.30;;;0.30;;
2896;SDS011;1458;49.728;9.228;2023-03-14T09:32:48;0.30;;;0.30;;
2896;SDS011;1458;49.728;9.228;2023-03-14T09:35:16;0.30;;;0.30;;
2896;SDS011;1458;49.728;9.228;2023-03-14T09:37:43;0.30;;;0.30;;
2896;SDS011;1458;49.728;9.228;2023-03-14T09:40:12;0.33;;;0.33;;
2896;SDS011;1458;49.728;9.228;2023-03-14T09:42:42;0.40;;;0.40;;
2896;SDS011;1458;49.728;9.228;2023-03-14T09:45:11;0.33;;;0.33;;
2896;SDS011;1458;49.728;9.228;2023-03-14T09:47:42;0.40;;;0.40;;
2896;SDS011;1458;49.728;9.228;2023-03-14T09:50:14;0.30;;;0.30;;
2896;SDS011;1458;49.728;9.228;2023-03-14T09:52:42;0.40;;;0.40;;
2896;SDS011;1458;49.728;9.228;2023-03-14T09:55:14;0.40;;;0.40;;
2896;SDS011;1458;49.728;9.228;2023-03-14T09:57:45;0.30;;;0.30;;
2896;SDS011;1458;49.728;9.228;2023-03-14T10:00:14;0.30;;;0.30;;
2896;SDS011;1458;49.728;9.228;2023-03-14T10:02:47;0.37;;;0.37;;
2896;SDS011;1458;49.728;9.228;2023-03-14T10:05:21;0.40;;;0.40;;
2896;SDS011;1458;49.728;9.228;2023-03-14T10:07:53;0.40;;;0.40;;
2896;SDS011;1458;49.728;9.228;2023-03-14T10:10:21;0.33;;;0.33;;
2896;SDS011;1458;49.728;9.228;2023-03-14T10:12:55;0.40;;;0.40;;
2896;SDS011;1458;49.728;9.228;2023-03-14T10:15:24;0.30;;;0.30;;
2896;SDS011;1458;49.728;9.228;2023-03-14T10:17:55;0.30;;;0.30;;
2896;SDS011;1458;49.728;9.228;2023-03-14T10:20:28;0.40;;;0.40;;
2896;SDS011;1458;49.728;9.228;2023-03-14T10:23:01;0.30;;;0.30;;
2896;SDS011;1458;49.728;9.228;2023-03-14T10:25:32;0.40;;;0.40;;
2896;SDS011;1458;49.728;9.228;2023-03-14T10:28:02;0.40;;;0.40;;
2896;SDS011;1458;49.728;9.228;2023-03-14T10:30:34;0.40;;;0.40;;
2896;SDS011;1458;49.728;9.228;2023-03-14T10:33:10;0.50;;;0.50;;
2896;SDS011;1458;49.728;9.228;2023-03-14T10:35:47;0.30;;;0.30;;
2896;SDS011;1458;49.728;9.228;2023-03-14T10:38:21;0.30;;;0.30;;
2896;SDS011;1458;49.728;9.228;2023-03-14T10:40:51;0.30;;;0.30;;
2896;SDS011;1458;49.728;9.228;2023-03-14T10:43:22;0.30;;;0.30;;
2896;SDS011;1458;49.728;9.228;2023-03-14T10:45:53;0.40;;;0.40;;
2896;SDS011;1458;49.728;9.228;2023-03-14T10:48:24;0.30;;;0.30;;
2896;SDS011;1458;49.728;9.228;2023-03-14T10:51:03;0.30;;;0.30;;
2896;SDS011;1458;49.728;9.228;2023-03-14T10:53:33;0.20;;;0.20;;
2896;SDS011;1458;49.728;9.228;2023-03-14T10:56:11;0.30;;;0.30;;
2896;SDS011;1458;49.728;9.228;2023-03-14T10:58:40;0.27;;;0.27;;
2896;SDS011;1458;49.728;9.228;2023-03-14T11:01:17;0.20;;;0.20;;
2896;SDS011;1458;49.728;9.228;2023-03-14T11:04:05;0.30;;;0.30;;
2896;SDS011;1458;49.728;9.228;2023-03-14T11:06:48;0.30;;;0.30;;
2896;SDS011;1458;49.728;9.228;2023-03-14T11:09:24;0.20;;;0.20;;
2896;SDS011;1458;49.728;9.228;2023-03-14T11:12:00;0.30;;;0.30;;
2896;SDS011;1458;49.728;9.228;2023-03-14T11:14:50;0.20;;;0.20;;
2896;SDS011;1458;49.728;9.228;2023-03-14T11:17:23;0.20;;;0.20;;
2896;SDS011;1458;49.728;9.228;2023-03-14T11:20:01;0.20;;;0.20;;
2896;SDS011;1458;49.728;9.228;2023-03-14T11:22:46;0.20;;;0.20;;
2896;SDS011;1458;49.728;9.228;2023-03-14T11:25:25;0.20;;;0.20;;
2896;SDS011;1458;49.728;9.228;2023-03-14T11:28:01;0.20;;;0.20;;
2896;SDS011;1458;49.728;9.228;2023-03-14T11:30:38;0.20;;;0.20;;
2896;SDS011;1458;49.728;9.228;2023-03-14T11:33:13;0.20;;;0.20;;
2896;SDS011;1458;49.728;9.228;2023-03-14T11:35:44;0.20;;;0.20;;
2896;SDS011;1458;49.728;9.228;2023-03-14T11:38:24;0.20;;;0.20;;
2896;SDS011;1458;49.728;9.228;2023-03-14T11:40:59;0.20;;;0.20;;
2896;SDS011;1458;49.728;9.228;2023-03-14T11:43:28;0.20;;;0.20;;
2896;SDS011;1458;49.728;9.228;2023-03-14T11:46:03;0.20;;;0.20;;
2896;SDS011;1458;49.728;9.228;2023-03-14T11:48:36;0.20;;;0.20;;
2896;SDS011;1458;49.728;9.228;2023-03-14T11:51:10;0.20;;;0.20;;
2896;SDS011;1458;49.728;9.228;2023-03-14T11:53:47;0.20;;;0.20;;
2896;SDS011;1458;49.728;9.228;2023-03-14T11:56:24;0.20;;;0.20;;
2896;SDS011;1458;49.728;9.228;2023-03-14T11:59:01;0.20;;;0.20;;
2896;SDS011;1458;49.728;9.228;2023-03-14T12:01:34;0.20;;;0.20;;
2896;SDS011;1458;49.728;9.228;2023-03-14T12:04:19;0.20;;;0.20;;
2896;SDS011;1458;49.728;9.228;2023-03-14T12:07:08;0.20;;;0.20;;
2896;SDS011;1458;49.728;9.228;2023-03-14T12:09:47;0.20;;;0.20;;
2896;SDS011;1458;49.728;9.228;2023-03-14T12:12:17;0.20;;;0.20;;
2896;SDS011;1458;49.728;9.228;2023-03-14T12:14:52;0.20;;;0.20;;
2896;SDS011;1458;49.728;9.228;2023-03-14T12:17:22;0.20;;;0.20;;
2896;SDS011;1458;49.728;9.228;2023-03-14T12:20:00;0.20;;;0.20;;
2896;SDS011;1458;49.728;9.228;2023-03-14T12:22:32;0.20;;;0.20;;
2896;SDS011;1458;49.728;9.228;2023-03-14T12:25:05;0.20;;;0.20;;
2896;SDS011;1458;49.728;9.228;2023-03-14T12:27:43;0.20;;;0.20;;
2896;SDS011;1458;49.728;9.228;2023-03-14T12:30:35;0.20;;;0.20;;
2896;SDS011;1458;49.728;9.228;2023-03-14T12:33:11;0.20;;;0.20;;
2896;SDS011;1458;49.728;9.228;2023-03-14T12:35:57;0.20;;;0.20;;
2896;SDS011;1458;49.728;9.228;2023-03-14T12:38:47;0.20;;;0.20;;
2896;SDS011;1458;49.728;9.228;2023-03-14T12:41:28;0.20;;;0.20;;
2896;SDS011;1458;49.728;9.228;2023-03-14T12:50:24;0.20;;;0.20;;
2896;SDS011;1458;49.728;9.228;2023-03-14T12:56:19;0.20;;;0.20;;
2896;SDS011;1458;49.728;9.228;2023-03-14T12:59:13;0.20;;;0.20;;
2896;SDS011;1458;49.728;9.228;2023-03-14T13:02:02;0.20;;;0.20;;
2896;SDS011;1458;49.728;9.228;2023-03-14T13:04:48;0.20;;;0.20;;
2896;SDS011;1458;49.728;9.228;2023-03-14T13:07:31;0.20;;;0.20;;
2896;SDS011;1458;49.728;9.228;2023-03-14T13:10:18;0.30;;;0.30;;
2896;SDS011;1458;49.728;9.228;2023-03-14T13:12:50;0.30;;;0.30;;
2896;SDS011;1458;49.728;9.228;2023-03-14T13:15:26;0.20;;;0.20;;
2896;SDS011;1458;49.728;9.228;2023-03-14T13:17:59;0.30;;;0.30;;
2896;SDS011;1458;49.728;9.228;2023-03-14T13:20:30;0.30;;;0.30;;
2896;SDS011;1458;49.728;9.228;2023-03-14T13:23:02;0.30;;;0.30;;
2896;SDS011;1458;49.728;9.228;2023-03-14T13:25:30;0.30;;;0.30;;
2896;SDS011;1458;49.728;9.228;2023-03-14T13:28:02;0.20;;;0.20;;
2896;SDS011;1458;49.728;9.228;2023-03-14T13:30:35;0.30;;;0.30;;
2896;SDS011;1458;49.728;9.228;2023-03-14T13:33:11;0.30;;;0.30;;
2896;SDS011;1458;49.728;9.228;2023-03-14T13:35:42;0.30;;;0.30;;
2896;SDS011;1458;49.728;9.228;2023-03-14T13:38:16;0.30;;;0.30;;
2896;SDS011;1458;49.728;9.228;2023-03-14T13:40:46;0.30;;;0.30;;
2896;SDS011;1458;49.728;9.228;2023-03-14T13:43:23;0.33;;;0.33;;
2896;SDS011;1458;49.728;9.228;2023-03-14T13:45:57;0.30;;;0.30;;
2896;SDS011;1458;49.728;9.228;2023-03-14T13:48:31;0.30;;;0.30;;
2896;SDS011;1458;49.728;9.228;2023-03-14T13:51:01;0.30;;;0.30;;
2896;SDS011;1458;49.728;9.228;2023-03-14T13:53:32;0.30;;;0.30;;
2896;SDS011;1458;49.728;9.228;2023-03-14T13:56:09;0.27;;;0.27;;
2896;SDS011;1458;49.728;9.228;2023-03-14T13:58:39;0.30;;;0.30;;
2896;SDS011;1458;49.728;9.228;2023-03-14T14:01:11;0.30;;;0.30;;
2896;SDS011;1458;49.728;9.228;2023-03-14T14:03:42;0.30;;;0.30;;
2896;SDS011;1458;49.728;9.228;2023-03-14T14:06:22;0.30;;;0.30;;
2896;SDS011;1458;49.728;9.228;2023-03-14T14:08:55;0.30;;;0.30;;
2896;SDS011;1458;49.728;9.228;2023-03-14T14:11:30;0.30;;;0.30;;
2896;SDS011;1458;49.728;9.228;2023-03-14T14:14:10;0.30;;;0.30;;
2896;SDS011;1458;49.728;9.228;2023-03-14T14:16:42;0.30;;;0.30;;
2896;SDS011;1458;49.728;9.228;2023-03-14T14:19:11;0.30;;;0.30;;
2896;SDS011;1458;49.728;9.228;2023-03-14T14:21:39;0.43;;;0.43;;
2896;SDS011;1458;49.728;9.228;2023-03-14T14:24:07;0.30;;;0.30;;
2896;SDS011;1458;49.728;9.228;2023-03-14T14:26:39;0.30;;;0.30;;
2896;SDS011;1458;49.728;9.228;2023-03-14T14:29:19;0.30;;;0.30;;
2896;SDS011;1458;49.728;9.228;2023-03-14T14:32:00;0.40;;;0.40;;
2896;SDS011;1458;49.728;9.228;2023-03-14T14:34:29;0.30;;;0.30;;
2896;SDS011;1458;49.728;9.228;2023-03-14T14:37:05;0.33;;;0.33;;
2896;SDS011;1458;49.728;9.228;2023-03-14T14:39:46;0.43;;;0.43;;
2896;SDS011;1458;49.728;9.228;2023-03-14T14:42:14;0.50;;;0.50;;
2896;SDS011;1458;49.728;9.228;2023-03-14T14:44:44;0.30;;;0.30;;
2896;SDS011;1458;49.728;9.228;2023-03-14T14:47:12;0.40;;;0.40;;
2896;SDS011;1458;49.728;9.228;2023-03-14T14:49:43;0.40;;;0.40;;
2896;SDS011;1458;49.728;9.228;2023-03-14T14:52:12;0.40;;;0.40;;
2896;SDS011;1458;49.728;9.228;2023-03-14T14:54:43;0.30;;;0.30;;
2896;SDS011;1458;49.728;9.228;2023-03-14T14:57:16;0.33;;;0.33;;
2896;SDS011;1458;49.728;9.228;2023-03-14T14:59:49;0.40;;;0.40;;
2896;SDS011;1458;49.728;9.228;2023-03-14T15:02:27;0.40;;;0.40;;
2896;SDS011;1458;49.728;9.228;2023-03-14T15:04:59;0.47;;;0.47;;
2896;SDS011;1458;49.728;9.228;2023-03-14T15:07:26;0.40;;;0.40;;
2896;SDS011;1458;49.728;9.228;2023-03-14T15:09:54;0.40;;;0.40;;
2896;SDS011;1458;49.728;9.228;2023-03-14T15:12:21;0.30;;;0.30;;
2896;SDS011;1458;49.728;9.228;2023-03-14T15:14:51;0.40;;;0.40;;
2896;SDS011;1458;49.728;9.228;2023-03-14T15:17:22;0.33;;;0.33;;
2896;SDS011;1458;49.728;9.228;2023-03-14T15:19:50;0.50;;;0.50;;
2896;SDS011;1458;49.728;9.228;2023-03-14T15:22:17;0.40;;;0.40;;
2896;SDS011;1458;49.728;9.228;2023-03-14T15:24:45;0.40;;;0.40;;
2896;SDS011;1458;49.728;9.228;2023-03-14T15:27:13;0.40;;;0.40;;
2896;SDS011;1458;49.728;9.228;2023-03-14T15:29:42;0.40;;;0.40;;
2896;SDS011;1458;49.728;9.228;2023-03-14T15:32:12;0.40;;;0.40;;
2896;SDS011;1458;49.728;9.228;2023-03-14T15:34:43;0.40;;;0.40;;
2896;SDS011;1458;49.728;9.228;2023-03-14T15:37:11;0.40;;;0.40;;
2896;SDS011;1458;49.728;9.228;2023-03-14T15:39:41;0.40;;;0.40;;
2896;SDS011;1458;49.728;9.228;2023-03-14T15:42:08;0.50;;;0.50;;
2896;SDS011;1458;49.728;9.228;2023-03-14T15:44:36;0.60;;;0.60;;
2896;SDS011;1458;49.728;9.228;2023-03-14T15:47:04;0.50;;;0.50;;
2896;SDS011;1458;49.728;9.228;2023-03-14T15:49:33;0.60;;;0.60;;
2896;SDS011;1458;49.728;9.228;2023-03-14T15:52:01;0.70;;;0.70;;
2896;SDS011;1458;49.728;9.228;2023-03-14T15:54:29;1.00;;;1.00;;